Time;durP1;ratioP1;P1;durP2;ratioP2;P2;SDS_P1;SDS_P2;PMS_P1;PMS_P2;Temp;Humidity;BMP_temperature;BMP_pressure;BME280_temperature;BME280_humidity;BME280_pressure;Samples;Min_cycle;Max_cycle;Signal;HPM_P1;HPM_P2
2021/10/22 00:01:38;;;;;;;18.60;4.33;;;5.90;99.90;;;;;;4991922;28;20231;-62
2021/10/22 00:04:05;;;;;;;16.03;4.30;;;5.90;1.00;;;;;;4992342;28;20251;-63
2021/10/22 00:06:32;;;;;;;21.53;4.20;;;5.90;99.90;;;;;;4991625;28;20207;-60
2021/10/22 00:08:58;;;;;;;19.33;5.00;;;5.90;30.80;;;;;;4991988;28;20236;-60
2021/10/22 00:11:25;;;;;;;15.17;3.93;;;5.90;1.00;;;;;;4991911;28;20712;-59
2021/10/22 00:13:52;;;;;;;14.07;4.30;;;5.90;99.90;;;;;;4994213;28;20266;-56
2021/10/22 00:16:18;;;;;;;15.83;4.10;;;5.90;99.90;;;;;;4995256;28;20203;-62
2021/10/22 00:18:46;;;;;;;16.57;3.87;;;6.00;99.90;;;;;;4995469;28;20216;-56
2021/10/22 00:21:13;;;;;;;17.53;5.30;;;6.00;1.00;;;;;;4995279;28;20227;-59
2021/10/22 00:23:40;;;;;;;12.00;4.27;;;6.00;1.00;;;;;;4995596;28;20215;-59
2021/10/22 00:26:06;;;;;;;19.37;4.30;;;5.90;1.00;;;;;;4994959;28;20208;-59
2021/10/22 00:28:33;;;;;;;19.17;4.20;;;5.90;1.00;;;;;;4995208;28;20227;-59
2021/10/22 00:31:00;;;;;;;20.37;4.47;;;5.90;1.00;;;;;;4995371;28;20318;-62
2021/10/22 00:33:26;;;;;;;14.17;3.97;;;5.90;1.00;;;;;;4995335;28;20212;-62
2021/10/22 00:35:54;;;;;;;18.40;4.20;;;5.80;1.00;;;;;;4994586;28;20758;-62
2021/10/22 00:38:21;;;;;;;18.70;4.33;;;5.80;99.90;;;;;;4995341;28;20294;-63
2021/10/22 00:40:51;;;;;;;11.93;3.97;;;5.90;1.00;;;;;;4995070;28;20310;-60
2021/10/22 00:43:18;;;;;;;16.73;4.30;;;5.90;99.90;;;;;;4995182;28;20701;-62
2021/10/22 00:45:45;;;;;;;15.20;3.70;;;5.90;99.90;;;;;;4994571;28;20218;-63
2021/10/22 00:48:12;;;;;;;17.23;4.50;;;5.90;1.00;;;;;;4994988;28;20238;-61
2021/10/22 00:50:40;;;;;;;12.93;3.77;;;6.00;99.90;;;;;;4994740;28;20235;-62
2021/10/22 00:53:09;;;;;;;20.03;4.17;;;6.00;36.10;;;;;;4995283;28;20235;-62
2021/10/22 00:55:35;;;;;;;13.63;3.83;;;6.00;1.00;;;;;;4994714;28;20264;-61
2021/10/22 00:58:02;;;;;;;13.93;3.30;;;6.00;99.90;;;;;;4995003;28;20208;-63
2021/10/22 01:00:28;;;;;;;15.33;4.10;;;6.10;99.90;;;;;;4994653;28;20235;-60
2021/10/22 01:02:55;;;;;;;12.03;3.30;;;6.10;99.90;;;;;;4994471;28;20274;-62
2021/10/22 01:05:22;;;;;;;14.17;3.80;;;6.10;99.90;;;;;;4994522;28;20638;-63
2021/10/22 01:07:50;;;;;;;14.37;3.27;;;6.20;1.00;;;;;;4994534;28;20672;-62
2021/10/22 01:10:18;;;;;;;10.67;3.20;;;6.10;99.90;;;;;;4994534;28;20228;-63
2021/10/22 01:12:45;;;;;;;15.67;3.37;;;6.20;99.90;;;;;;4994694;28;20685;-63
2021/10/22 01:15:12;;;;;;;19.40;4.83;;;6.20;99.90;;;;;;4994085;28;20274;-62
2021/10/22 01:17:41;;;;;;;16.23;3.53;;;6.30;60.10;;;;;;4994401;28;20207;-63
2021/10/22 01:20:10;;;;;;;10.93;2.70;;;6.30;99.90;;;;;;4994485;28;20294;-60
2021/10/22 01:22:39;;;;;;;14.57;2.93;;;6.30;12.60;;;;;;4994456;28;20222;-63
2021/10/22 01:25:07;;;;;;;10.70;2.70;;;6.40;1.00;;;;;;4993792;28;20632;-63
2021/10/22 01:27:34;;;;;;;7.40;2.20;;;6.40;1.00;;;;;;4994250;28;20747;-63
2021/10/22 01:30:01;;;;;;;11.63;2.83;;;6.30;99.90;;;;;;4993761;28;20219;-63
2021/10/22 01:32:27;;;;;;;9.57;2.20;;;6.40;99.90;;;;;;4994389;28;20212;-60
2021/10/22 01:34:54;;;;;;;10.10;2.17;;;6.30;99.90;;;;;;4993933;28;20311;-63
2021/10/22 01:37:21;;;;;;;10.77;2.53;;;6.30;1.00;;;;;;4994019;28;20278;-63
2021/10/22 01:39:49;;;;;;;9.33;2.20;;;6.30;1.00;;;;;;4994129;28;20203;-63
2021/10/22 01:42:16;;;;;;;14.07;2.10;;;6.20;1.00;;;;;;4994079;28;20228;-58
2021/10/22 01:44:43;;;;;;;12.80;2.13;;;6.20;1.00;;;;;;4993768;28;20275;-62
2021/10/22 01:47:10;;;;;;;5.60;1.63;;;6.20;1.00;;;;;;4994078;28;20296;-59
2021/10/22 01:49:37;;;;;;;9.27;2.40;;;6.20;65.40;;;;;;4993982;28;20292;-62
2021/10/22 01:52:04;;;;;;;10.70;2.50;;;6.10;99.90;;;;;;4993630;28;20232;-62
2021/10/22 01:54:31;;;;;;;9.70;2.50;;;6.10;99.90;;;;;;4993933;28;20264;-64
2021/10/22 01:56:59;;;;;;;12.10;2.50;;;6.10;99.90;;;;;;4993595;28;20266;-58
2021/10/22 01:59:26;;;;;;;8.17;2.57;;;6.00;99.90;;;;;;4993650;28;20298;-60
2021/10/22 02:01:53;;;;;;;12.90;2.73;;;6.00;1.00;;;;;;4993645;28;20654;-60
2021/10/22 02:04:19;;;;;;;8.47;2.10;;;6.00;1.00;;;;;;4993694;28;20204;-62
2021/10/22 02:06:47;;;;;;;8.47;2.40;;;6.00;1.00;;;;;;4993310;28;20218;-58
2021/10/22 02:09:14;;;;;;;8.03;2.30;;;6.00;1.00;;;;;;4993312;28;20231;-63
2021/10/22 02:11:41;;;;;;;11.20;2.77;;;6.00;1.00;;;;;;4993400;28;20242;-58
2021/10/22 02:14:09;;;;;;;13.47;2.80;;;5.90;1.00;;;;;;4993637;28;20207;-62
2021/10/22 02:16:36;;;;;;;10.20;3.00;;;5.90;1.00;;;;;;4993128;28;20211;-62
2021/10/22 02:19:02;;;;;;;11.60;3.20;;;5.80;99.90;;;;;;4993585;28;20208;-63
2021/10/22 02:21:29;;;;;;;10.10;2.63;;;5.80;99.90;;;;;;4993048;28;20227;-62
2021/10/22 02:23:56;;;;;;;14.33;3.07;;;5.80;99.90;;;;;;4993376;28;20203;-63
2021/10/22 02:26:22;;;;;;;9.80;2.80;;;5.80;99.90;;;;;;4992674;28;20262;-63
2021/10/22 02:28:49;;;;;;;13.87;2.93;;;5.80;99.90;;;;;;4993046;28;20596;-59
2021/10/22 02:31:19;;;;;;;15.33;3.17;;;5.70;1.00;;;;;;4993160;28;20236;-61
2021/10/22 02:33:46;;;;;;;8.73;3.20;;;5.70;1.00;;;;;;4993655;28;20210;-63
2021/10/22 02:36:12;;;;;;;12.87;3.30;;;5.70;1.00;;;;;;4992328;28;20245;-63
2021/10/22 02:38:39;;;;;;;13.03;3.63;;;5.70;1.00;;;;;;4992551;28;20207;-58
2021/10/22 02:41:06;;;;;;;10.93;3.10;;;5.70;99.90;;;;;;4992866;28;20237;-63
2021/10/22 02:43:32;;;;;;;16.60;3.83;;;5.70;99.90;;;;;;4993048;28;20211;-63
2021/10/22 02:45:59;;;;;;;11.53;3.23;;;5.70;31.50;;;;;;4992573;28;20211;-63
2021/10/22 02:48:27;;;;;;;14.67;3.00;;;5.70;1.00;;;;;;4992918;28;20207;-60
2021/10/22 02:50:54;;;;;;;14.77;3.27;;;5.70;1.00;;;;;;4992795;28;20242;-62
2021/10/22 02:53:21;;;;;;;13.57;3.57;;;5.70;1.00;;;;;;4992716;28;20206;-62
2021/10/22 02:55:47;;;;;;;13.23;3.47;;;5.70;1.00;;;;;;4992754;28;20266;-60
2021/10/22 02:58:14;;;;;;;9.57;3.27;;;5.80;99.90;;;;;;4992995;28;20218;-59
2021/10/22 03:00:41;;;;;;;9.10;3.00;;;5.80;99.90;;;;;;4992590;28;20235;-62
2021/10/22 03:03:08;;;;;;;17.10;2.87;;;5.80;1.00;;;;;;4992732;28;20215;-60
2021/10/22 03:05:36;;;;;;;14.00;3.03;;;5.80;99.90;;;;;;4992067;28;20207;-61
2021/10/22 03:08:03;;;;;;;7.83;2.50;;;5.80;99.90;;;;;;4992341;28;20210;-59
2021/10/22 03:10:29;;;;;;;13.37;3.53;;;5.80;59.20;;;;;;4992588;28;20235;-62
2021/10/22 03:12:56;;;;;;;11.07;3.10;;;5.80;60.50;;;;;;4992788;28;20210;-60
2021/10/22 03:15:23;;;;;;;14.47;3.63;;;5.70;1.00;;;;;;4992297;28;20218;-62
2021/10/22 03:17:49;;;;;;;14.97;3.07;;;5.70;1.00;;;;;;4992406;28;20586;-63
2021/10/22 03:20:16;;;;;;;20.03;3.90;;;5.70;1.00;;;;;;4992591;28;20203;-60
2021/10/22 03:22:44;;;;;;;10.37;3.20;;;5.70;1.00;;;;;;4992373;28;20258;-59
2021/10/22 03:25:10;;;;;;;12.07;2.63;;;5.70;1.00;;;;;;4992196;28;20257;-58
2021/10/22 03:27:37;;;;;;;10.90;3.10;;;5.60;1.00;;;;;;4992382;28;20208;-59
2021/10/22 03:30:05;;;;;;;11.10;3.00;;;5.70;99.90;;;;;;4992074;28;20735;-61
2021/10/22 03:32:33;;;;;;;14.37;2.90;;;5.60;99.90;;;;;;4992398;28;20285;-60
2021/10/22 03:35:00;;;;;;;8.07;2.50;;;5.60;99.90;;;;;;4991947;28;20268;-61
2021/10/22 03:37:26;;;;;;;12.43;3.13;;;5.60;99.90;;;;;;4992494;28;20297;-62
2021/10/22 03:39:55;;;;;;;10.53;3.40;;;5.60;99.90;;;;;;4992361;28;20276;-60
2021/10/22 03:42:22;;;;;;;12.40;2.80;;;5.60;99.90;;;;;;4992335;28;20232;-64
2021/10/22 03:44:48;;;;;;;9.07;2.50;;;5.60;94.00;;;;;;4991818;28;20270;-60
2021/10/22 03:47:15;;;;;;;10.63;2.80;;;5.60;99.90;;;;;;4992435;28;20742;-63
2021/10/22 03:49:43;;;;;;;16.63;3.30;;;5.60;47.40;;;;;;4995556;28;20223;-61
2021/10/22 03:52:10;;;;;;;14.30;2.93;;;5.60;1.00;;;;;;4996095;28;20640;-63
2021/10/22 03:54:36;;;;;;;12.73;2.63;;;5.50;1.00;;;;;;4995666;28;20274;-63
2021/10/22 03:57:05;;;;;;;13.77;2.87;;;5.60;1.00;;;;;;4996173;28;20212;-58
2021/10/22 03:59:31;;;;;;;12.57;2.50;;;5.60;1.00;;;;;;4995816;28;20211;-61
2021/10/22 04:01:59;;;;;;;6.07;2.60;;;5.60;99.90;;;;;;4995585;28;20278;-60
2021/10/22 04:04:29;;;;;;;10.30;3.27;;;5.60;99.90;;;;;;4995907;28;20212;-62
2021/10/22 04:06:57;;;;;;;14.93;3.27;;;5.60;99.90;;;;;;4995553;28;20211;-59
2021/10/22 04:09:25;;;;;;;10.03;2.83;;;5.60;99.90;;;;;;4995627;28;20758;-60
2021/10/22 04:11:52;;;;;;;8.83;2.57;;;5.70;99.90;;;;;;4992803;28;20223;-63
2021/10/22 04:14:20;;;;;;;11.33;2.67;;;5.70;99.90;;;;;;4991622;28;20216;-63
2021/10/22 04:16:47;;;;;;;6.50;2.50;;;5.70;99.90;;;;;;4994974;28;20698;-60
2021/10/22 04:19:13;;;;;;;7.90;2.43;;;5.70;99.90;;;;;;4995371;28;20732;-62
2021/10/22 04:21:40;;;;;;;18.77;2.83;;;5.70;99.90;;;;;;4995371;28;20228;-62
2021/10/22 04:24:07;;;;;;;11.20;2.80;;;5.70;99.90;;;;;;4995580;28;20207;-63
2021/10/22 04:26:33;;;;;;;11.93;2.80;;;5.70;99.90;;;;;;4990964;28;20210;-62
2021/10/22 04:29:00;;;;;;;10.33;2.60;;;5.70;99.90;;;;;;4995565;28;20269;-62
2021/10/22 04:31:28;;;;;;;8.77;2.40;;;5.70;99.90;;;;;;4996262;28;20320;-63
2021/10/22 04:33:54;;;;;;;8.50;2.67;;;5.70;96.80;;;;;;4994915;28;20207;-62
2021/10/22 04:36:21;;;;;;;11.57;3.03;;;5.60;99.90;;;;;;4994406;28;20211;-63
2021/10/22 04:41:32;;;;;;;11.63;2.27;;;5.60;97.40;;;;;;4994760;28;20226;-63
2021/10/22 04:43:58;;;;;;;11.87;2.17;;;5.60;89.70;;;;;;4994743;28;20210;-61
2021/10/22 04:46:25;;;;;;;7.97;2.27;;;5.60;82.30;;;;;;4994365;28;20216;-63
2021/10/22 04:48:53;;;;;;;9.70;2.63;;;5.60;77.00;;;;;;4994950;28;20258;-63
2021/10/22 04:51:20;;;;;;;7.27;1.77;;;5.60;56.80;;;;;;4994586;28;20287;-63
2021/10/22 04:53:47;;;;;;;17.27;3.00;;;5.50;48.40;;;;;;4994728;28;20211;-63
2021/10/22 04:56:14;;;;;;;7.23;1.90;;;5.50;45.30;;;;;;4993867;28;20261;-59
2021/10/22 04:58:40;;;;;;;10.87;2.77;;;5.60;39.70;;;;;;4994294;28;20212;-61
2021/10/22 05:01:07;;;;;;;10.47;2.63;;;5.60;19.70;;;;;;4994621;28;20231;-58
2021/10/22 05:03:34;;;;;;;12.07;2.20;;;5.50;27.90;;;;;;4994544;28;20207;-59
2021/10/22 05:06:02;;;;;;;14.90;2.77;;;5.50;34.30;;;;;;4993871;28;20213;-59
2021/10/22 05:08:29;;;;;;;13.27;3.57;;;5.50;38.00;;;;;;4994420;28;20214;-61
2021/10/22 05:10:56;;;;;;;15.73;3.77;;;5.50;37.00;;;;;;4994147;28;20654;-62
2021/10/22 05:13:23;;;;;;;14.77;3.60;;;5.60;18.40;;;;;;4994521;28;20208;-63
2021/10/22 05:15:49;;;;;;;10.80;2.50;;;5.70;21.70;;;;;;4993505;28;20218;-61
2021/10/22 05:18:17;;;;;;;11.40;2.57;;;5.70;14.00;;;;;;4993199;28;20283;-65
2021/10/22 05:20:44;;;;;;;5.93;2.50;;;5.80;2.30;;;;;;4993732;28;20224;-63
2021/10/22 05:23:11;;;;;;;13.77;2.77;;;5.80;2.10;;;;;;4994411;28;20215;-61
2021/10/22 05:25:38;;;;;;;11.37;2.30;;;5.80;1.00;;;;;;4993460;28;20211;-63
2021/10/22 05:28:05;;;;;;;7.43;2.23;;;5.80;1.00;;;;;;4994199;28;20731;-63
2021/10/22 05:30:32;;;;;;;10.03;2.57;;;5.90;1.00;;;;;;4993889;28;20239;-60
2021/10/22 05:32:59;;;;;;;10.33;2.43;;;5.90;1.00;;;;;;4994305;28;20563;-63
2021/10/22 05:35:26;;;;;;;9.63;2.50;;;5.90;1.00;;;;;;4993688;28;20207;-63
2021/10/22 05:37:52;;;;;;;12.83;3.03;;;5.90;1.00;;;;;;4993846;28;20633;-63
2021/10/22 05:40:20;;;;;;;8.53;2.40;;;6.00;1.00;;;;;;4993723;28;20723;-63
2021/10/22 05:42:47;;;;;;;7.00;2.20;;;5.90;1.00;;;;;;4994002;28;20238;-64
2021/10/22 05:45:13;;;;;;;9.37;2.43;;;5.90;1.00;;;;;;4993602;28;20207;-65
2021/10/22 05:47:41;;;;;;;7.77;2.57;;;5.90;1.00;;;;;;4986340;28;20639;-66
2021/10/22 05:50:09;;;;;;;17.63;3.00;;;5.80;1.00;;;;;;4992486;28;20223;-66
2021/10/22 05:52:36;;;;;;;8.93;2.30;;;5.80;1.00;;;;;;4992882;28;20275;-67
2021/10/22 05:55:04;;;;;;;6.20;2.23;;;5.80;1.00;;;;;;4993089;28;20290;-67
2021/10/22 05:57:32;;;;;;;13.07;2.70;;;5.70;1.00;;;;;;4992955;28;20212;-68
2021/10/22 05:59:59;;;;;;;14.13;2.40;;;5.70;1.00;;;;;;4993072;28;20218;-67
2021/10/22 06:02:26;;;;;;;14.97;3.07;;;5.70;1.00;;;;;;4993087;28;20211;-66
2021/10/22 06:04:52;;;;;;;10.73;2.60;;;5.70;1.00;;;;;;4992536;28;20238;-64
2021/10/22 06:07:20;;;;;;;8.97;2.50;;;5.70;1.00;;;;;;4992560;28;20237;-66
2021/10/22 06:09:47;;;;;;;11.90;2.60;;;5.70;1.00;;;;;;4992911;28;20218;-64
2021/10/22 06:12:14;;;;;;;7.77;2.50;;;5.70;1.00;;;;;;4992343;28;20233;-64
2021/10/22 06:14:42;;;;;;;8.87;2.27;;;5.70;1.00;;;;;;4992434;28;20306;-64
2021/10/22 06:17:09;;;;;;;11.80;2.10;;;5.70;1.00;;;;;;4992477;28;20215;-65
2021/10/22 06:19:39;;;;;;;11.57;2.90;;;5.70;1.00;;;;;;4992527;28;20223;-64
2021/10/22 06:22:20;;;;;;;13.00;2.80;;;5.70;1.00;;;;;;4992679;28;20264;-64
2021/10/22 06:24:47;;;;;;;8.87;2.23;;;5.70;1.00;;;;;;4992532;28;20239;-65
2021/10/22 06:27:14;;;;;;;13.17;2.83;;;5.70;1.00;;;;;;4992333;28;20745;-69
2021/10/22 06:29:42;;;;;;;12.53;2.67;;;5.70;1.00;;;;;;4992473;28;20244;-66
2021/10/22 06:32:09;;;;;;;8.63;2.30;;;5.70;1.00;;;;;;4992409;28;20233;-64
2021/10/22 06:34:35;;;;;;;12.23;2.73;;;5.70;1.00;;;;;;4992085;28;20211;-65
2021/10/22 06:37:03;;;;;;;6.70;2.43;;;5.70;1.00;;;;;;4992366;28;20210;-64
2021/10/22 06:39:29;;;;;;;9.60;2.90;;;5.70;1.00;;;;;;4992252;28;20207;-67
2021/10/22 06:41:56;;;;;;;15.07;2.57;;;5.70;1.00;;;;;;4992364;28;20239;-66
2021/10/22 06:44:25;;;;;;;10.07;2.83;;;5.90;1.00;;;;;;4992382;28;20207;-63
2021/10/22 06:46:53;;;;;;;6.60;2.37;;;5.90;1.00;;;;;;4991703;28;20210;-64
2021/10/22 06:49:20;;;;;;;9.93;3.40;;;6.00;1.00;;;;;;4992602;28;20243;-65
2021/10/22 06:51:46;;;;;;;12.93;2.53;;;6.10;1.00;;;;;;4993001;28;20235;-63
2021/10/22 06:54:13;;;;;;;9.00;2.97;;;6.20;1.00;;;;;;4992522;28;20210;-64
2021/10/22 06:56:40;;;;;;;7.53;2.50;;;6.30;1.00;;;;;;4991811;28;20212;-65
2021/10/22 06:59:06;;;;;;;8.53;2.33;;;6.40;1.00;;;;;;4991817;28;20208;-65
2021/10/22 07:01:33;;;;;;;14.27;2.90;;;6.40;1.00;;;;;;4972851;28;20236;-64
2021/10/22 07:04:02;;;;;;;14.90;3.07;;;6.40;1.00;;;;;;4973109;28;20208;-65
2021/10/22 07:09:12;;;;;;;12.20;2.70;;;6.50;1.00;;;;;;4972639;28;20342;-63
2021/10/22 07:11:39;;;;;;;13.80;2.93;;;6.50;1.00;;;;;;4972564;28;20705;-61
2021/10/22 07:14:08;;;;;;;11.83;2.63;;;6.60;1.00;;;;;;4972652;28;20211;-64
2021/10/22 07:16:37;;;;;;;10.50;2.23;;;6.60;1.00;;;;;;4972387;28;20298;-65
2021/10/22 07:19:06;;;;;;;12.10;3.17;;;6.70;1.00;;;;;;4972854;28;20212;-64
2021/10/22 07:21:33;;;;;;;9.33;2.97;;;6.70;1.00;;;;;;4972658;28;20256;-65
2021/10/22 07:24:06;;;;;;;5.87;1.97;;;6.70;1.00;;;;;;4976646;28;20604;-61
2021/10/22 07:26:32;;;;;;;7.60;2.70;;;6.80;1.00;;;;;;4976076;28;20200;-63
2021/10/22 07:28:59;;;;;;;9.03;2.60;;;6.80;1.00;;;;;;4976419;28;20239;-65
2021/10/22 07:31:26;;;;;;;12.13;2.80;;;6.80;1.00;;;;;;4976267;28;20254;-65
2021/10/22 07:33:52;;;;;;;11.03;2.77;;;6.80;1.00;;;;;;4976570;28;20208;-65
2021/10/22 07:36:20;;;;;;;10.63;2.70;;;6.90;1.00;;;;;;4975905;28;20216;-63
2021/10/22 07:38:47;;;;;;;10.83;2.87;;;6.90;1.00;;;;;;4975614;28;20213;-62
2021/10/22 07:41:15;;;;;;;9.33;3.27;;;6.90;1.00;;;;;;4976244;28;20220;-62
2021/10/22 07:43:42;;;;;;;4.53;1.67;;;6.80;1.00;;;;;;4976289;28;20208;-62
2021/10/22 07:46:09;;;;;;;13.27;2.57;;;6.80;1.00;;;;;;4975857;28;20692;-63
2021/10/22 07:48:35;;;;;;;10.37;2.93;;;6.80;1.00;;;;;;4975922;28;20215;-62
2021/10/22 07:51:02;;;;;;;11.23;2.40;;;6.90;1.00;;;;;;4976032;28;20228;-62
2021/10/22 07:53:30;;;;;;;10.00;2.40;;;6.90;1.00;;;;;;4975914;28;20208;-62
2021/10/22 07:55:57;;;;;;;17.87;3.20;;;7.00;1.00;;;;;;4975881;28;20211;-63
2021/10/22 07:58:24;;;;;;;13.00;2.80;;;7.00;1.00;;;;;;4975654;28;20776;-64
2021/10/22 08:00:51;;;;;;;8.00;2.37;;;7.10;1.00;;;;;;4975746;28;20294;-64
2021/10/22 08:03:18;;;;;;;9.00;2.43;;;7.10;1.00;;;;;;4975912;28;20630;-64
2021/10/22 08:05:44;;;;;;;11.27;2.50;;;7.20;1.00;;;;;;4975610;28;20212;-64
2021/10/22 08:08:12;;;;;;;9.17;2.47;;;7.20;1.00;;;;;;5010907;28;20211;-66
2021/10/22 08:10:41;;;;;;;5.73;2.47;;;7.30;1.00;;;;;;5014931;28;20233;-68
2021/10/22 08:13:11;;;;;;;9.17;2.90;;;7.30;1.00;;;;;;5014929;28;20289;-66
2021/10/22 08:15:40;;;;;;;9.90;2.20;;;7.30;1.00;;;;;;5014343;28;20230;-68
2021/10/22 08:18:08;;;;;;;8.00;2.43;;;7.40;1.00;;;;;;5014443;28;20210;-65
2021/10/22 08:20:36;;;;;;;5.17;2.30;;;7.40;1.00;;;;;;5014729;28;20231;-65
2021/10/22 08:23:03;;;;;;;11.00;2.43;;;7.40;1.00;;;;;;5014960;28;20203;-65
2021/10/22 08:25:30;;;;;;;7.87;2.13;;;7.60;1.00;;;;;;5014248;28;20202;-66
2021/10/22 08:27:59;;;;;;;10.00;2.70;;;7.70;1.00;;;;;;5014371;28;20218;-67
2021/10/22 08:30:27;;;;;;;7.90;2.77;;;7.70;1.00;;;;;;5014002;28;20318;-65
2021/10/22 08:32:56;;;;;;;7.30;2.57;;;7.70;1.00;;;;;;5014016;28;20238;-64
2021/10/22 08:35:27;;;;;;;11.70;3.17;;;7.70;1.00;;;;;;5013047;28;20217;-62
2021/10/22 08:37:54;;;;;;;9.77;2.73;;;7.70;1.00;;;;;;5014218;28;20286;-63
2021/10/22 08:40:23;;;;;;;9.87;2.57;;;7.70;1.00;;;;;;5014336;28;20227;-63
2021/10/22 08:42:51;;;;;;;9.73;2.60;;;7.80;1.00;;;;;;5014084;28;20253;-63
2021/10/22 08:45:20;;;;;;;12.73;2.67;;;7.80;1.00;;;;;;5013908;28;20211;-63
2021/10/22 08:47:47;;;;;;;12.57;2.60;;;7.90;1.00;;;;;;5013632;28;20277;-66
2021/10/22 08:50:16;;;;;;;10.30;2.73;;;7.90;1.00;;;;;;5013860;28;20247;-66
2021/10/22 08:52:44;;;;;;;7.60;2.77;;;7.90;1.00;;;;;;5013961;28;20222;-66
2021/10/22 08:55:12;;;;;;;10.83;2.90;;;7.90;1.00;;;;;;5013781;28;20276;-67
2021/10/22 08:57:42;;;;;;;14.43;3.43;;;8.00;1.00;;;;;;5013476;28;20207;-66
2021/10/22 09:00:10;;;;;;;9.30;2.73;;;8.00;1.00;;;;;;5013397;28;20703;-67
2021/10/22 09:02:38;;;;;;;8.17;3.10;;;8.00;1.00;;;;;;5013890;28;20207;-65
2021/10/22 09:05:16;;;;;;;7.27;2.60;;;7.90;1.00;;;;;;5013396;28;20285;-64
2021/10/22 09:07:45;;;;;;;9.43;2.50;;;8.00;1.00;;;;;;5013528;28;20218;-65
2021/10/22 09:10:15;;;;;;;11.30;2.63;;;7.90;1.00;;;;;;5013724;28;20203;-65
2021/10/22 09:12:50;;;;;;;9.27;2.53;;;7.90;1.00;;;;;;5013418;28;20282;-65
2021/10/22 09:15:21;;;;;;;8.60;2.80;;;7.90;1.00;;;;;;5011716;28;20235;-64
2021/10/22 09:17:49;;;;;;;12.43;2.60;;;8.00;1.00;;;;;;5013415;28;20213;-64
2021/10/22 09:20:16;;;;;;;3.60;1.70;;;8.00;1.00;;;;;;5013412;28;20213;-64
2021/10/22 09:22:50;;;;;;;11.10;2.23;;;8.10;1.00;;;;;;5000857;28;20211;-64
2021/10/22 09:25:21;;;;;;;9.13;2.30;;;8.10;1.00;;;;;;4993393;28;20211;-64
2021/10/22 09:27:50;;;;;;;7.77;1.97;;;8.30;1.00;;;;;;4993645;28;20581;-63
2021/10/22 09:30:32;;;;;;;10.47;2.17;;;8.30;1.00;;;;;;4993692;28;20293;-63
2021/10/22 09:33:03;;;;;;;10.43;2.87;;;8.50;1.00;;;;;;4993579;28;20240;-65
2021/10/22 09:35:37;;;;;;;10.67;2.47;;;8.70;1.00;;;;;;4993106;28;20206;-65
2021/10/22 09:38:08;;;;;;;12.13;2.27;;;8.80;1.00;;;;;;4993496;28;20848;-65
2021/10/22 09:40:36;;;;;;;9.77;2.13;;;8.90;1.00;;;;;;4993339;28;20654;-64
2021/10/22 09:43:20;;;;;;;7.83;2.20;;;8.90;1.00;;;;;;4993641;28;20289;-64
2021/10/22 09:45:48;;;;;;;7.73;2.00;;;9.00;1.00;;;;;;4992958;28;20215;-64
2021/10/22 09:48:26;;;;;;;9.50;3.20;;;9.00;1.00;;;;;;4992986;28;20301;-63
2021/10/22 09:50:55;;;;;;;6.67;2.13;;;9.00;1.00;;;;;;4993054;28;20734;-64
2021/10/22 09:53:29;;;;;;;7.20;2.33;;;8.80;1.00;;;;;;4993341;28;20212;-68
2021/10/22 09:56:05;;;;;;;9.43;2.17;;;8.80;1.00;;;;;;4992827;28;20220;-65
2021/10/22 09:58:32;;;;;;;8.27;2.03;;;8.80;1.00;;;;;;4992678;28;20221;-66
2021/10/22 10:01:09;;;;;;;7.23;2.13;;;8.90;1.00;;;;;;4993179;28;20242;-65
2021/10/22 10:03:39;;;;;;;11.13;2.70;;;9.10;1.00;;;;;;4993177;28;20298;-65
2021/10/22 10:06:07;;;;;;;6.20;1.83;;;9.20;1.00;;;;;;4993065;28;20206;-66
2021/10/22 10:08:36;;;;;;;8.83;2.30;;;9.30;1.00;;;;;;4992998;28;20218;-63
2021/10/22 10:11:03;;;;;;;9.63;2.83;;;9.50;1.00;;;;;;4992922;28;20261;-65
2021/10/22 10:13:33;;;;;;;10.00;2.47;;;9.60;1.00;;;;;;4992969;28;20231;-62
2021/10/22 10:16:02;;;;;;;6.53;2.10;;;9.70;1.00;;;;;;4993119;28;20215;-64
2021/10/22 10:18:30;;;;;;;8.97;2.10;;;9.60;1.00;;;;;;4993121;28;20660;-62
2021/10/22 10:21:03;;;;;;;8.77;2.30;;;9.60;1.00;;;;;;4992554;28;20232;-61
2021/10/22 10:23:30;;;;;;;10.30;1.97;;;9.70;1.00;;;;;;4992687;28;20214;-63
2021/10/22 10:25:57;;;;;;;8.00;2.20;;;9.80;1.00;;;;;;4992475;28;20674;-63
2021/10/22 10:28:39;;;;;;;11.97;2.20;;;9.90;1.00;;;;;;4992558;28;20199;-62
2021/10/22 10:31:27;;;;;;;8.50;1.80;;;10.10;1.00;;;;;;4992485;28;20321;-61
2021/10/22 10:33:54;;;;;;;12.43;2.67;;;10.10;1.00;;;;;;4992470;28;20218;-63
2021/10/22 10:36:48;;;;;;;9.13;2.20;;;10.10;1.00;;;;;;4992207;28;20207;-63
2021/10/22 10:39:15;;;;;;;6.40;2.03;;;9.90;1.00;;;;;;4992509;28;20208;-66
2021/10/22 10:41:41;;;;;;;7.33;1.90;;;9.90;1.00;;;;;;4992849;28;20777;-66
2021/10/22 10:44:32;;;;;;;9.70;2.37;;;9.90;1.00;;;;;;4992480;28;20258;-63
2021/10/22 10:46:59;;;;;;;7.30;2.03;;;10.10;1.00;;;;;;4992476;28;20204;-64
2021/10/22 10:49:59;;;;;;;7.90;1.47;;;10.20;1.00;;;;;;4992309;28;20218;-63
2021/10/22 10:52:54;;;;;;;9.90;2.13;;;10.40;1.00;;;;;;4991881;28;20731;-63
2021/10/22 10:55:26;;;;;;;12.53;1.90;;;10.60;1.00;;;;;;4992092;28;20609;-63
2021/10/22 10:57:57;;;;;;;7.90;1.87;;;10.50;1.00;;;;;;4991569;28;20234;-62
2021/10/22 11:00:29;;;;;;;7.93;1.93;;;10.50;1.00;;;;;;4991845;28;20639;-62
2021/10/22 11:03:24;;;;;;;8.10;1.63;;;10.50;1.00;;;;;;4992197;28;20769;-63
2021/10/22 11:06:10;;;;;;;8.47;2.27;;;10.40;1.00;;;;;;4991710;28;20208;-62
2021/10/22 11:08:52;;;;;;;6.93;1.93;;;10.40;1.00;;;;;;4991928;28;20215;-63
2021/10/22 11:11:27;;;;;;;8.30;2.07;;;10.40;1.00;;;;;;4991535;28;20231;-63
2021/10/22 11:13:57;;;;;;;6.90;2.33;;;10.40;1.00;;;;;;4992460;28;20298;-62
2021/10/22 11:16:32;;;;;;;7.47;2.13;;;10.40;1.00;;;;;;4991824;28;20250;-63
2021/10/22 11:19:01;;;;;;;11.27;1.60;;;10.40;1.00;;;;;;4991900;28;20215;-62
2021/10/22 11:21:29;;;;;;;15.53;2.40;;;10.50;1.00;;;;;;4991992;28;20231;-65
2021/10/22 11:23:58;;;;;;;6.40;1.80;;;10.60;1.00;;;;;;4991744;28;20208;-65
2021/10/22 11:26:25;;;;;;;7.53;1.90;;;10.70;1.00;;;;;;4991765;28;20215;-66
2021/10/22 11:28:53;;;;;;;7.43;2.27;;;10.80;1.00;;;;;;4991786;28;20826;-65
2021/10/22 11:31:39;;;;;;;8.30;2.57;;;10.90;1.00;;;;;;4991788;28;20231;-66
2021/10/22 11:34:07;;;;;;;6.90;1.93;;;10.90;1.00;;;;;;4991714;28;20670;-63
2021/10/22 11:36:35;;;;;;;7.03;1.90;;;10.90;1.00;;;;;;4991161;28;20212;-64
2021/10/22 11:39:03;;;;;;;5.73;2.00;;;10.90;1.00;;;;;;4991602;28;20215;-64
2021/10/22 11:41:30;;;;;;;8.70;1.97;;;10.90;1.00;;;;;;4991710;28;20597;-64
2021/10/22 11:44:05;;;;;;;9.57;1.90;;;10.70;1.00;;;;;;4992202;28;20199;-64
2021/10/22 11:46:43;;;;;;;4.43;2.03;;;10.70;1.00;;;;;;4991388;28;20214;-65
2021/10/22 11:49:11;;;;;;;6.87;1.97;;;10.60;1.00;;;;;;4991614;28;20211;-63
2021/10/22 11:51:38;;;;;;;11.17;2.30;;;10.60;1.00;;;;;;4991747;28;20607;-63
2021/10/22 11:54:06;;;;;;;9.53;2.17;;;10.50;1.00;;;;;;4992098;28;20215;-62
2021/10/22 11:56:36;;;;;;;4.93;1.60;;;10.50;1.00;;;;;;4991208;28;20687;-62
2021/10/22 11:59:06;;;;;;;9.87;2.00;;;10.50;1.00;;;;;;4991587;28;20211;-61
2021/10/22 12:01:38;;;;;;;10.27;2.23;;;10.40;1.00;;;;;;4991617;28;20908;-62
2021/10/22 12:04:07;;;;;;;8.60;2.10;;;10.40;1.00;;;;;;4991822;28;20208;-62
2021/10/22 12:06:34;;;;;;;7.17;2.00;;;10.30;1.00;;;;;;4991361;28;20262;-61
2021/10/22 12:09:02;;;;;;;7.03;2.30;;;10.30;1.00;;;;;;4992520;28;20294;-64
2021/10/22 12:11:30;;;;;;;6.53;2.20;;;10.20;1.00;;;;;;4994876;28;20234;-65
2021/10/22 12:13:58;;;;;;;8.53;2.00;;;10.30;1.00;;;;;;4995020;28;20208;-64
2021/10/22 12:16:29;;;;;;;8.07;2.47;;;10.30;1.00;;;;;;4994732;28;20234;-61
2021/10/22 12:18:59;;;;;;;5.57;1.83;;;10.30;1.00;;;;;;4995210;28;20229;-60
2021/10/22 12:21:26;;;;;;;7.23;2.10;;;10.40;1.00;;;;;;4995032;28;20634;-62
2021/10/22 12:23:56;;;;;;;6.83;1.70;;;10.50;1.00;;;;;;4994998;28;20207;-60
2021/10/22 12:26:24;;;;;;;7.60;2.10;;;10.50;1.00;;;;;;4994326;28;20692;-62
2021/10/22 12:28:59;;;;;;;8.20;2.20;;;10.50;1.00;;;;;;4994795;28;20608;-64
2021/10/22 12:31:31;;;;;;;6.23;1.80;;;10.60;1.00;;;;;;4994917;28;20658;-66
2021/10/22 12:34:06;;;;;;;7.67;2.10;;;10.60;1.00;;;;;;4994827;28;20235;-65
2021/10/22 12:36:34;;;;;;;4.73;1.80;;;10.60;1.00;;;;;;4994161;28;20630;-66
2021/10/22 12:39:01;;;;;;;5.73;1.87;;;10.60;1.00;;;;;;4993975;28;20207;-66
2021/10/22 12:41:28;;;;;;;4.53;1.87;;;10.60;1.00;;;;;;4994949;28;20235;-66
2021/10/22 12:46:55;;;;;;;5.63;1.83;;;10.70;1.00;;;;;;5109280;27;20602;-67
2021/10/22 12:49:25;;;;;;;4.60;1.90;;;10.70;1.00;;;;;;5109024;28;20213;-66
2021/10/22 12:51:57;;;;;;;8.40;2.27;;;10.70;1.00;;;;;;5109476;28;20315;-64
2021/10/22 12:54:24;;;;;;;10.70;2.30;;;10.80;1.00;;;;;;5109555;28;20205;-67
2021/10/22 12:56:56;;;;;;;6.73;2.10;;;10.90;1.00;;;;;;5109145;28;20215;-67
2021/10/22 12:59:24;;;;;;;9.47;3.10;;;10.90;1.00;;;;;;5109222;28;20199;-65
2021/10/22 13:01:52;;;;;;;4.37;2.10;;;10.90;1.00;;;;;;5108907;28;20227;-66
2021/10/22 13:04:22;;;;;;;10.20;2.63;;;10.90;1.00;;;;;;5109080;28;20219;-65
2021/10/22 13:06:57;;;;;;;7.77;2.30;;;10.90;1.00;;;;;;5108545;28;20635;-64
2021/10/22 13:15:16;;;;;;;7.40;2.33;;;10.90;1.00;;;;;;5108334;28;20198;-65
2021/10/22 13:20:38;;;;;;;5.63;2.50;;;10.90;1.00;;;;;;5108135;28;20593;-63
2021/10/22 13:23:10;;;;;;;10.17;2.60;;;10.90;1.00;;;;;;5108895;28;20581;-63